createdAt,value
2023-04-03T00:01:47.864Z,102072.16
2023-04-03T00:04:14.257Z,102077.44
2023-04-03T00:06:40.591Z,102078.31
2023-04-03T00:09:08.684Z,102083.19
2023-04-03T00:11:35.738Z,102078.63
2023-04-03T00:14:02.053Z,102081.03
2023-04-03T00:16:28.393Z,102088.28
2023-04-03T00:18:54.831Z,102087.03
2023-04-03T00:21:21.129Z,102089.31
2023-04-03T00:23:47.456Z,102090.75
2023-04-03T00:26:13.825Z,102092.84
2023-04-03T00:28:40.388Z,102089.63
2023-04-03T00:31:06.743Z,102091.72
2023-04-03T00:33:33.121Z,102093.84
2023-04-03T00:35:59.505Z,102098.47
2023-04-03T00:38:25.952Z,102096.97
2023-04-03T00:40:52.300Z,102096.91
2023-04-03T00:43:24.432Z,102096.28
2023-04-03T00:45:53.735Z,102089.94
2023-04-03T00:48:35.431Z,102096.81
2023-04-03T00:51:04.573Z,102091.97
2023-04-03T00:53:36.389Z,102094.97
2023-04-03T00:56:06.806Z,102101.69
2023-04-03T00:58:43.026Z,102102.44
2023-04-03T01:01:15.009Z,102098.19
2023-04-03T01:03:41.458Z,102107.16
2023-04-03T01:06:08.039Z,102111.38
2023-04-03T01:08:35.745Z,102104.22
2023-04-03T01:11:02.075Z,102117.31
2023-04-03T01:13:33.801Z,102112.47
2023-04-03T01:16:05.412Z,102106.16
2023-04-03T01:18:33.116Z,102109.34
2023-04-03T01:21:17.309Z,102108.50
2023-04-03T01:24:05.500Z,102117.25
2023-04-03T01:26:32.765Z,102117.03
2023-04-03T01:29:00.449Z,102113.63
2023-04-03T01:31:53.286Z,102111.09
2023-04-03T01:34:20.055Z,102110.25
2023-04-03T01:36:46.373Z,102111.97
2023-04-03T01:39:12.911Z,102117.72
2023-04-03T01:41:39.324Z,102119.72
2023-04-03T01:44:06.174Z,102116.72
2023-04-03T01:46:32.901Z,102121.25
2023-04-03T01:48:59.218Z,102119.97
2023-04-03T01:51:25.588Z,102124.94
2023-04-03T01:53:51.932Z,102132.31
2023-04-03T01:56:18.437Z,102131.13
2023-04-03T01:58:44.747Z,102129.00
2023-04-03T02:01:11.057Z,102128.84
2023-04-03T02:03:37.464Z,102121.22
2023-04-03T02:06:03.854Z,102121.72
2023-04-03T02:08:30.206Z,102128.41
2023-04-03T02:10:56.523Z,102129.16
2023-04-03T02:13:22.850Z,102129.44
2023-04-03T02:15:49.181Z,102127.13
2023-04-03T02:18:15.545Z,102122.34
2023-04-03T02:20:41.873Z,102130.19
2023-04-03T02:23:08.248Z,102123.38
2023-04-03T02:25:36.625Z,102124.00
2023-04-03T02:28:04.487Z,102125.38
2023-04-03T02:30:30.805Z,102124.25
2023-04-03T02:32:57.158Z,102123.53
2023-04-03T02:35:23.548Z,102127.75
2023-04-03T02:37:49.872Z,102128.41
2023-04-03T02:40:16.207Z,102135.09
2023-04-03T02:42:42.506Z,102133.72
2023-04-03T02:45:09.129Z,102135.69
2023-04-03T02:47:35.423Z,102132.53
2023-04-03T02:50:01.751Z,102126.56
2023-04-03T02:52:28.091Z,102124.41
2023-04-03T02:54:54.401Z,102136.13
2023-04-03T02:57:20.777Z,102128.31
2023-04-03T02:59:47.184Z,102130.97
2023-04-03T03:02:13.479Z,102132.09
2023-04-03T03:04:39.841Z,102127.47
2023-04-03T03:07:06.205Z,102131.91
2023-04-03T03:09:32.976Z,102135.22
2023-04-03T03:11:59.375Z,102132.53
2023-04-03T03:14:25.725Z,102134.88
2023-04-03T03:16:52.062Z,102128.47
2023-04-03T03:19:18.360Z,102140.81
2023-04-03T03:21:44.700Z,102138.38
2023-04-03T03:24:10.989Z,102135.09
2023-04-03T03:26:37.299Z,102139.22
2023-04-03T03:29:03.708Z,102141.31
2023-04-03T03:31:30.204Z,102144.50
2023-04-03T03:33:56.518Z,102152.91
2023-04-03T03:36:23.002Z,102147.34
2023-04-03T03:38:49.349Z,102151.59
2023-04-03T03:41:15.674Z,102158.97
2023-04-03T03:43:41.990Z,102156.00
2023-04-03T03:46:08.330Z,102157.06
2023-04-03T03:48:34.692Z,102155.06
2023-04-03T03:51:01.025Z,102149.19
2023-04-03T03:53:27.323Z,102152.56
2023-04-03T03:55:53.636Z,102149.31
2023-04-03T03:58:20.012Z,102146.78
2023-04-03T04:00:46.329Z,102150.16
2023-04-03T04:03:12.705Z,102155.13
2023-04-03T04:05:39.372Z,102160.53
2023-04-03T04:08:06.243Z,102167.50
2023-04-03T04:10:32.791Z,102169.59
2023-04-03T04:12:59.102Z,102172.59
2023-04-03T04:15:25.402Z,102176.59
2023-04-03T04:17:52.025Z,102179.94
2023-04-03T04:20:18.358Z,102174.28
2023-04-03T04:22:44.684Z,102182.81
2023-04-03T04:25:11.167Z,102185.31
2023-04-03T04:27:37.557Z,102181.56
2023-04-03T04:30:04.791Z,102183.97
2023-04-03T04:32:31.173Z,102188.00
2023-04-03T04:34:57.578Z,102185.50
2023-04-03T04:37:23.914Z,102183.56
2023-04-03T04:39:50.282Z,102184.47
2023-04-03T04:42:17.838Z,102193.16
2023-04-03T04:44:44.429Z,102181.53
2023-04-03T04:47:10.745Z,102189.31
2023-04-03T04:49:37.076Z,102186.16
2023-04-03T04:52:03.401Z,102194.03
2023-04-03T04:54:29.821Z,102195.06
2023-04-03T04:56:56.236Z,102203.44
2023-04-03T04:59:22.679Z,102195.41
2023-04-03T05:01:49.035Z,102196.88
2023-04-03T05:04:15.429Z,102202.25
2023-04-03T05:06:42.148Z,102200.44
2023-04-03T05:09:08.491Z,102208.50
2023-04-03T05:11:34.797Z,102207.63
2023-04-03T05:14:01.120Z,102200.78
2023-04-03T05:16:27.445Z,102218.28
2023-04-03T05:18:53.776Z,102208.50
2023-04-03T05:21:20.108Z,102215.16
2023-04-03T05:23:46.404Z,102217.75
2023-04-03T05:26:12.948Z,102221.75
2023-04-03T05:28:39.340Z,102218.03
2023-04-03T05:31:05.756Z,102225.16
2023-04-03T05:33:32.071Z,102221.72
2023-04-03T05:36:03.781Z,102233.94
2023-04-03T05:38:30.404Z,102236.28
2023-04-03T05:40:56.784Z,102243.13
2023-04-03T05:43:23.090Z,102241.16
2023-04-03T05:45:49.430Z,102242.94
2023-04-03T05:48:15.785Z,102246.94
2023-04-03T05:50:42.311Z,102246.16
2023-04-03T05:53:16.619Z,102245.22
2023-04-03T05:55:42.918Z,102248.56
2023-04-03T05:58:11.507Z,102259.78
2023-04-03T06:00:38.107Z,102252.44
2023-04-03T06:03:04.556Z,102259.72
2023-04-03T06:05:30.984Z,102260.91
2023-04-03T06:07:57.315Z,102263.03
2023-04-03T06:10:23.739Z,102266.59
2023-04-03T06:12:51.161Z,102262.81
2023-04-03T06:15:17.882Z,102258.78
2023-04-03T06:17:44.403Z,102263.31
2023-04-03T06:20:11.396Z,102269.19
2023-04-03T06:22:37.891Z,102264.78
2023-04-03T06:25:04.898Z,102266.78
2023-04-03T06:27:31.444Z,102270.19
2023-04-03T06:29:57.739Z,102272.09
2023-04-03T06:32:24.294Z,102264.22
2023-04-03T06:34:50.585Z,102269.50
2023-04-03T06:37:21.981Z,102262.13
2023-04-03T06:39:48.800Z,102266.72
2023-04-03T06:42:15.116Z,102269.97
2023-04-03T06:44:41.423Z,102269.88
2023-04-03T06:47:07.730Z,102272.63
2023-04-03T06:49:34.030Z,102271.09
2023-04-03T06:52:01.728Z,102277.72
2023-04-03T06:54:28.894Z,102286.38
2023-04-03T06:56:55.256Z,102288.41
2023-04-03T06:59:21.577Z,102286.78
2023-04-03T07:01:47.913Z,102290.44
2023-04-03T07:04:14.245Z,102293.53
2023-04-03T07:06:40.899Z,102295.19
2023-04-03T07:09:07.207Z,102300.41
2023-04-03T07:11:33.518Z,102301.78
2023-04-03T07:13:59.829Z,102301.22
2023-04-03T07:16:26.185Z,102305.53
2023-04-03T07:18:52.547Z,102309.84
2023-04-03T07:21:18.932Z,102313.00
2023-04-03T07:23:45.329Z,102310.19
2023-04-03T07:26:11.776Z,102315.34
2023-04-03T07:28:38.180Z,102330.16
2023-04-03T07:31:11.043Z,102319.50
2023-04-03T07:33:38.240Z,102329.59
2023-04-03T07:36:06.505Z,102337.31
2023-04-03T07:38:32.844Z,102336.09
2023-04-03T07:40:59.166Z,102333.63
2023-04-03T07:43:25.688Z,102330.84
2023-04-03T07:45:52.141Z,102340.03
2023-04-03T07:48:23.310Z,102342.25
2023-04-03T07:50:50.009Z,102342.28
2023-04-03T07:53:16.556Z,102350.19
2023-04-03T07:55:43.369Z,102343.16
2023-04-03T07:58:15.453Z,102343.50
2023-04-03T08:00:41.824Z,102345.41
2023-04-03T08:03:12.083Z,102354.19
2023-04-03T08:05:40.555Z,102348.66
2023-04-03T08:08:07.347Z,102344.25
2023-04-03T08:10:34.632Z,102345.97
2023-04-03T08:13:02.068Z,102348.81
2023-04-03T08:15:28.712Z,102348.97
2023-04-03T08:17:55.506Z,102350.66
2023-04-03T08:20:21.918Z,102355.84
2023-04-03T08:22:48.305Z,102353.94
2023-04-03T08:25:14.680Z,102357.38
2023-04-03T08:27:40.985Z,102355.09
2023-04-03T08:30:08.344Z,102346.94
2023-04-03T08:32:35.108Z,102340.50
2023-04-03T08:35:01.450Z,102346.66
2023-04-03T08:37:27.770Z,102343.59
2023-04-03T08:39:54.161Z,102347.56
2023-04-03T08:42:42.915Z,102339.06
2023-04-03T08:45:34.309Z,102348.97
2023-04-03T08:48:08.037Z,102345.56
2023-04-03T08:50:40.283Z,102349.66
2023-04-03T08:53:12.756Z,102341.34
2023-04-03T08:55:44.385Z,102342.66
2023-04-03T08:58:24.467Z,102337.09
2023-04-03T09:00:52.097Z,102336.66
2023-04-03T09:03:20.917Z,102331.06
2023-04-03T09:05:57.208Z,102342.66
2023-04-03T09:08:38.044Z,102344.09
2023-04-03T09:11:12.482Z,102337.72
2023-04-03T09:14:02.652Z,102339.75
2023-04-03T09:16:34.550Z,102331.91
2023-04-03T09:19:22.587Z,102335.19
2023-04-03T09:21:48.916Z,102329.41
2023-04-03T09:24:18.624Z,102335.81
2023-04-03T09:26:52.026Z,102328.72
2023-04-03T09:29:20.684Z,102322.84
2023-04-03T09:31:49.666Z,102325.66
2023-04-03T09:34:23.287Z,102328.28
2023-04-03T09:36:52.544Z,102318.50
2023-04-03T09:39:25.008Z,102321.75
2023-04-03T09:42:27.221Z,102315.75
2023-04-03T09:45:01.311Z,102321.13
2023-04-03T09:47:32.830Z,102319.63
2023-04-03T09:50:14.316Z,102321.44
2023-04-03T09:52:46.356Z,102320.34
2023-04-03T09:55:20.581Z,102318.53
2023-04-03T09:57:47.524Z,102325.72
2023-04-03T10:00:26.941Z,102313.69
2023-04-03T10:02:55.952Z,102309.72
2023-04-03T10:05:38.185Z,102308.22
2023-04-03T10:08:26.512Z,102309.00
2023-04-03T10:11:13.937Z,102307.28
2023-04-03T10:13:57.783Z,102302.97
2023-04-03T10:16:38.921Z,102306.38
2023-04-03T10:19:23.155Z,102296.94
2023-04-03T10:21:57.478Z,102294.31
2023-04-03T10:24:48.457Z,102296.31
2023-04-03T10:27:27.378Z,102291.50
2023-04-03T10:30:23.617Z,102294.19
2023-04-03T10:33:14.140Z,102289.16
2023-04-03T10:35:50.109Z,102288.38
2023-04-03T10:38:29.457Z,102295.84
2023-04-03T10:41:05.839Z,102289.06
2023-04-03T10:43:53.568Z,102286.78
2023-04-03T10:46:28.836Z,102280.84
2023-04-03T10:49:06.904Z,102284.47
2023-04-03T10:52:11.870Z,102282.88
2023-04-03T10:54:50.497Z,102274.91
2023-04-03T10:57:17.273Z,102279.25
2023-04-03T10:59:54.269Z,102275.75
2023-04-03T11:02:34.027Z,102269.00
2023-04-03T11:05:08.338Z,102269.59
2023-04-03T11:07:39.464Z,102267.78
2023-04-03T11:10:14.751Z,102248.69
2023-04-03T11:12:53.629Z,102253.72
2023-04-03T11:15:24.254Z,102253.41
2023-04-03T11:18:01.769Z,102259.78
2023-04-03T11:20:31.358Z,102250.72
2023-04-03T11:23:45.978Z,102255.28
2023-04-03T11:26:17.068Z,102252.13
2023-04-03T11:28:43.707Z,102253.84
2023-04-03T11:31:44.468Z,102250.84
2023-04-03T11:34:38.490Z,102258.72
2023-04-03T11:37:13.343Z,102243.00
2023-04-03T11:39:41.188Z,102244.66
2023-04-03T11:42:26.031Z,102251.69
2023-04-03T11:44:52.456Z,102244.41
2023-04-03T11:47:49.718Z,102253.06
2023-04-03T11:50:34.586Z,102246.84
2023-04-03T11:53:04.667Z,102237.59
2023-04-03T11:55:30.915Z,102226.28
2023-04-03T11:58:00.012Z,102227.31
2023-04-03T12:00:54.841Z,102223.13
2023-04-03T12:03:24.074Z,102218.56
2023-04-03T12:06:11.552Z,102216.19
2023-04-03T12:08:40.635Z,102226.91
2023-04-03T12:11:10.147Z,102214.91
2023-04-03T12:13:42.227Z,102225.47
2023-04-03T12:16:40.216Z,102220.25
2023-04-03T12:19:15.411Z,102204.06
2023-04-03T12:21:44.740Z,102211.00
2023-04-03T12:24:11.057Z,102200.44
2023-04-03T12:27:05.291Z,102195.97
2023-04-03T12:29:46.902Z,102199.84
2023-04-03T12:32:40.896Z,102198.03
2023-04-03T12:35:30.385Z,102183.09
2023-04-03T12:38:18.880Z,102181.13
2023-04-03T12:40:51.100Z,102166.09
2023-04-03T12:43:32.754Z,102169.31
2023-04-03T12:45:59.103Z,102159.38
2023-04-03T12:48:27.951Z,102163.06
2023-04-03T12:50:55.660Z,102153.38
2023-04-03T12:53:49.437Z,102153.59
2023-04-03T12:56:30.397Z,102155.59
2023-04-03T12:59:33.763Z,102153.81
2023-04-03T13:02:01.938Z,102148.84
2023-04-03T13:04:31.527Z,102139.78
2023-04-03T13:06:58.772Z,102140.78
2023-04-03T13:09:32.314Z,102147.09
2023-04-03T13:12:00.482Z,102138.16
2023-04-03T13:14:28.324Z,102140.63
2023-04-03T13:17:16.968Z,102133.53
2023-04-03T13:19:45.519Z,102142.59
2023-04-03T13:22:40.730Z,102133.59
2023-04-03T13:25:11.655Z,102133.78
2023-04-03T13:27:39.780Z,102133.91
2023-04-03T13:30:06.977Z,102133.81
2023-04-03T13:32:33.443Z,102131.81
2023-04-03T13:35:11.763Z,102124.22
2023-04-03T13:37:56.591Z,102127.84
2023-04-03T13:40:22.945Z,102115.13
2023-04-03T13:43:06.946Z,102125.81
2023-04-03T13:45:35.724Z,102123.31
2023-04-03T13:48:35.413Z,102124.34
2023-04-03T13:51:17.405Z,102119.94
2023-04-03T13:53:54.641Z,102115.69
2023-04-03T13:56:47.310Z,102118.94
2023-04-03T13:59:13.584Z,102115.47
2023-04-03T14:01:55.522Z,102114.31
2023-04-03T14:04:28.299Z,102123.75
2023-04-03T14:06:55.486Z,102109.31
2023-04-03T14:09:23.524Z,102098.03
2023-04-03T14:11:53.179Z,102109.31
2023-04-03T14:14:24.409Z,102093.28
2023-04-03T14:16:56.872Z,102079.16
2023-04-03T14:19:29.689Z,102094.44
2023-04-03T14:21:56.826Z,102089.50
2023-04-03T14:24:24.675Z,102080.84
2023-04-03T14:26:53.390Z,102077.41
2023-04-03T14:29:20.714Z,102081.97
2023-04-03T14:31:48.942Z,102075.44
2023-04-03T14:34:17.109Z,102087.03
2023-04-03T14:36:45.543Z,102079.63
2023-04-03T14:39:17.751Z,102067.09
2023-04-03T14:41:44.794Z,102066.00
2023-04-03T14:44:11.118Z,102069.41
2023-04-03T14:46:55.520Z,102068.00
2023-04-03T14:49:26.431Z,102062.34
2023-04-03T14:51:53.316Z,102062.38
2023-04-03T14:54:21.706Z,102056.72
2023-04-03T14:56:48.636Z,102055.66
2023-04-03T14:59:15.705Z,102049.09
2023-04-03T15:01:42.392Z,102048.44
2023-04-03T15:04:15.215Z,102051.09
2023-04-03T15:06:42.964Z,102054.44
2023-04-03T15:09:21.877Z,102067.00
2023-04-03T15:11:49.701Z,102062.97
2023-04-03T15:14:24.338Z,102066.84
2023-04-03T15:17:02.222Z,102058.50
2023-04-03T15:19:28.519Z,102054.88
2023-04-03T15:21:54.816Z,102053.44
2023-04-03T15:24:21.125Z,102050.03
2023-04-03T15:26:47.467Z,102051.81
2023-04-03T15:29:13.786Z,102054.38
2023-04-03T15:31:40.135Z,102054.50
2023-04-03T15:34:06.490Z,102053.28
2023-04-03T15:36:34.650Z,102056.41
2023-04-03T15:39:01.359Z,102042.88
2023-04-03T15:41:27.673Z,102038.66
2023-04-03T15:43:54.029Z,102039.72
2023-04-03T15:46:20.513Z,102035.81
2023-04-03T15:48:46.912Z,102041.00
2023-04-03T15:51:13.242Z,102038.06
2023-04-03T15:53:39.568Z,102043.88
2023-04-03T15:56:05.961Z,102046.47
2023-04-03T15:58:32.413Z,102050.06
2023-04-03T16:00:58.831Z,102050.06
2023-04-03T16:03:25.457Z,102040.75
2023-04-03T16:05:52.203Z,102041.75
2023-04-03T16:08:19.179Z,102039.28
2023-04-03T16:10:45.586Z,102035.47
2023-04-03T16:13:12.058Z,102029.81
2023-04-03T16:15:38.849Z,102036.53
2023-04-03T16:18:06.013Z,102036.41
2023-04-03T16:20:32.921Z,102036.88
2023-04-03T16:23:00.812Z,102031.94
2023-04-03T16:25:27.555Z,102035.53
2023-04-03T16:27:53.986Z,102041.53
2023-04-03T16:30:20.393Z,102045.38
2023-04-03T16:32:47.179Z,102038.66
2023-04-03T16:35:13.548Z,102047.13
2023-04-03T16:37:40.784Z,102038.09
2023-04-03T16:40:08.479Z,102033.75
2023-04-03T16:42:36.524Z,102032.69
2023-04-03T16:45:04.018Z,102029.94
2023-04-03T16:47:31.318Z,102031.50
2023-04-03T16:49:57.799Z,102024.88
2023-04-03T16:52:24.514Z,102023.47
2023-04-03T16:54:50.955Z,102019.22
2023-04-03T16:57:17.256Z,102021.09
2023-04-03T16:59:43.592Z,102023.44
2023-04-03T17:02:09.904Z,102026.47
2023-04-03T17:04:36.244Z,102012.28
2023-04-03T17:07:02.600Z,102023.09
2023-04-03T17:09:28.907Z,102032.84
2023-04-03T17:11:55.223Z,102024.47
2023-04-03T17:14:21.568Z,102030.91
2023-04-03T17:16:47.952Z,102027.84
2023-04-03T17:19:14.409Z,102026.22
2023-04-03T17:21:40.779Z,102035.56
2023-04-03T17:24:09.713Z,102029.28
2023-04-03T17:26:36.243Z,102023.97
2023-04-03T17:29:03.320Z,102033.72
2023-04-03T17:31:29.712Z,102029.13
2023-04-03T17:33:56.150Z,102029.97
2023-04-03T17:36:22.624Z,102035.59
2023-04-03T17:38:51.486Z,102041.88
2023-04-03T17:41:17.795Z,102036.16
2023-04-03T17:43:44.145Z,102039.31
2023-04-03T17:46:10.799Z,102038.84
2023-04-03T17:48:39.860Z,102034.63
2023-04-03T17:51:08.190Z,102037.06
2023-04-03T17:53:34.585Z,102035.69
2023-04-03T17:56:08.770Z,102037.44
2023-04-03T17:58:35.905Z,102040.88
2023-04-03T18:01:16.860Z,102036.34
2023-04-03T18:03:44.333Z,102037.69
2023-04-03T18:06:14.373Z,102040.56
2023-04-03T18:08:49.619Z,102041.53
2023-04-03T18:11:16.666Z,102031.41
2023-04-03T18:13:44.211Z,102037.66
2023-04-03T18:16:11.983Z,102045.75
2023-04-03T18:18:38.646Z,102041.22
2023-04-03T18:21:08.157Z,102043.81
2023-04-03T18:23:36.536Z,102043.88
2023-04-03T18:26:03.825Z,102040.13
2023-04-03T18:28:31.700Z,102044.53
2023-04-03T18:31:00.337Z,102048.09
2023-04-03T18:33:26.656Z,102046.22
2023-04-03T18:35:53.017Z,102046.19
2023-04-03T18:38:19.371Z,102049.75
2023-04-03T18:40:46.107Z,102048.75
2023-04-03T18:43:13.179Z,102060.22
2023-04-03T18:45:41.165Z,102053.53
2023-04-03T18:48:07.748Z,102057.16
2023-04-03T18:50:34.618Z,102066.47
2023-04-03T18:53:00.959Z,102062.56
2023-04-03T18:55:27.299Z,102060.69
2023-04-03T18:57:53.621Z,102065.81
2023-04-03T19:00:20.077Z,102059.44
2023-04-03T19:02:46.605Z,102058.47
2023-04-03T19:05:15.364Z,102063.25
2023-04-03T19:07:43.992Z,102064.25
2023-04-03T19:10:14.900Z,102068.19
2023-04-03T19:12:41.203Z,102065.13
2023-04-03T19:15:07.744Z,102063.66
2023-04-03T19:17:34.089Z,102070.75
2023-04-03T19:20:00.507Z,102067.84
2023-04-03T19:22:26.827Z,102065.16
2023-04-03T19:24:53.172Z,102061.66
2023-04-03T19:27:19.471Z,102064.78
2023-04-03T19:29:49.051Z,102068.09
2023-04-03T19:32:15.511Z,102064.19
2023-04-03T19:34:41.856Z,102067.50
2023-04-03T19:37:08.243Z,102059.66
2023-04-03T19:39:37.657Z,102060.47
2023-04-03T19:42:05.096Z,102058.00
2023-04-03T19:44:33.602Z,102052.22
2023-04-03T19:47:00.466Z,102065.84
2023-04-03T19:49:27.032Z,102062.34
2023-04-03T19:51:53.796Z,102059.25
2023-04-03T19:54:21.351Z,102072.06
2023-04-03T19:56:47.794Z,102067.69
2023-04-03T19:59:14.409Z,102068.75
2023-04-03T20:01:40.777Z,102072.03
2023-04-03T20:04:07.168Z,102076.97
2023-04-03T20:06:33.815Z,102073.66
2023-04-03T20:09:00.342Z,102075.34
2023-04-03T20:11:26.733Z,102072.44
2023-04-03T20:13:54.811Z,102075.13
2023-04-03T20:16:22.690Z,102076.75
2023-04-03T20:18:51.092Z,102078.59
2023-04-03T20:21:18.762Z,102082.91
2023-04-03T20:23:45.067Z,102073.63
2023-04-03T20:26:20.426Z,102079.00
2023-04-03T20:28:46.772Z,102083.13
2023-04-03T20:31:13.116Z,102076.72
2023-04-03T20:33:39.457Z,102079.63
2023-04-03T20:36:05.958Z,102075.69
2023-04-03T20:38:32.343Z,102079.19
2023-04-03T20:40:58.633Z,102074.81
2023-04-03T20:43:24.932Z,102072.50
2023-04-03T20:45:51.393Z,102068.50
2023-04-03T20:48:18.659Z,102073.81
2023-04-03T20:50:45.850Z,102071.38
2023-04-03T20:53:12.523Z,102066.81
2023-04-03T20:55:38.974Z,102066.44
2023-04-03T20:58:05.287Z,102061.13
2023-04-03T21:00:31.623Z,102060.66
2023-04-03T21:02:58.987Z,102064.81
2023-04-03T21:05:25.345Z,102059.44
2023-04-03T21:08:29.446Z,102058.94
2023-04-03T21:11:33.091Z,102058.13
2023-04-03T21:14:36.876Z,102057.50
2023-04-03T21:17:03.185Z,102053.09
2023-04-03T21:19:29.625Z,102053.72
2023-04-03T21:21:59.662Z,102050.63
2023-04-03T21:24:26.222Z,102044.41
2023-04-03T21:26:52.616Z,102050.00
2023-04-03T21:29:18.919Z,102046.72
2023-04-03T21:31:59.681Z,102048.38
2023-04-03T21:34:30.136Z,102046.00
2023-04-03T21:37:01.002Z,102045.06
2023-04-03T21:39:27.305Z,102043.81
2023-04-03T21:41:53.644Z,102040.09
2023-04-03T21:44:20.724Z,102038.50
2023-04-03T21:46:47.970Z,102039.16
2023-04-03T21:49:14.356Z,102034.50
2023-04-03T21:51:40.679Z,102037.28
2023-04-03T21:54:07.042Z,102032.31
2023-04-03T21:56:33.411Z,102035.13
2023-04-03T21:59:03.646Z,102028.53
2023-04-03T22:01:30.185Z,102022.69
2023-04-03T22:03:57.702Z,102022.94
2023-04-03T22:06:24.507Z,102026.00
2023-04-03T22:08:50.912Z,102023.59
2023-04-03T22:11:17.372Z,102025.91
2023-04-03T22:13:44.526Z,102024.53
2023-04-03T22:16:11.973Z,102024.69
2023-04-03T22:18:38.612Z,102023.50
2023-04-03T22:21:05.503Z,102033.13
2023-04-03T22:23:31.855Z,102024.91
2023-04-03T22:26:03.903Z,102022.59
2023-04-03T22:28:32.502Z,102024.00
2023-04-03T22:31:02.830Z,102018.03
2023-04-03T22:33:29.903Z,102023.69
2023-04-03T22:35:56.609Z,102024.53
2023-04-03T22:38:22.976Z,102016.41
2023-04-03T22:40:57.425Z,102017.47
2023-04-03T22:43:23.889Z,102020.72
2023-04-03T22:45:50.211Z,102021.63
2023-04-03T22:48:16.994Z,102025.28
2023-04-03T22:50:43.615Z,102020.53
2023-04-03T22:53:10.261Z,102021.22
2023-04-03T22:55:36.858Z,102019.22
2023-04-03T22:58:03.846Z,102019.53
2023-04-03T23:00:30.397Z,102017.53
2023-04-03T23:03:01.176Z,102020.44
2023-04-03T23:05:28.412Z,102019.56
2023-04-03T23:07:54.906Z,102023.69
2023-04-03T23:10:21.828Z,102019.72
2023-04-03T23:12:48.228Z,102025.38
2023-04-03T23:15:14.550Z,102026.06
2023-04-03T23:17:40.912Z,102023.66
2023-04-03T23:20:07.723Z,102030.25
2023-04-03T23:22:34.027Z,102033.94
2023-04-03T23:25:00.339Z,102034.44
2023-04-03T23:27:26.634Z,102035.19
2023-04-03T23:29:52.958Z,102024.59
2023-04-03T23:32:19.251Z,102032.97
2023-04-03T23:34:45.600Z,102031.19
2023-04-03T23:37:12.344Z,102028.59
2023-04-03T23:39:38.636Z,102034.78
2023-04-03T23:42:05.067Z,102041.56
2023-04-03T23:44:31.457Z,102037.13
2023-04-03T23:46:57.748Z,102039.00
2023-04-03T23:49:24.059Z,102034.97
2023-04-03T23:51:50.404Z,102034.78
2023-04-03T23:54:16.722Z,102033.13
2023-04-03T23:56:43.030Z,102033.31
2023-04-03T23:59:09.384Z,102032.94
